Terminal Aerodrome Forecast
Issued by NWS Cleveland, OH

Home | Current Version | Previous Version | Text Only | Print | Product List | Glossary On
Versions: 1 2 3 4 5 6 7 8 9 10 11 12 13
000
FTUS41 KCLE 210500
TAFERI
TAF
KERI 210537Z 2106/2206 19008KT P6SM SCT070
     FM211200 23006KT P6SM BKN100
     FM211500 26010KT P6SM SCT050 BKN100
     FM220200 VRB03KT P6SM FEW050 BKN100=

USA.gov is the U.S. government's official web portal to all federal, state and local government web resources and services.